createdAt,value
2017-11-21T06:25:09.395Z,10.90
2017-11-21T06:31:16.798Z,8.80
2017-11-21T06:32:39.922Z,7.80
2017-11-21T06:33:39.907Z,8.30
2017-11-21T06:35:32.837Z,7.70
2017-11-21T06:36:32.847Z,7.70
2017-11-21T06:37:32.869Z,7.30
2017-11-21T06:38:32.894Z,7.90
2017-11-21T06:39:32.907Z,8.90
2017-11-21T06:40:32.928Z,7.30
2017-11-21T06:41:32.947Z,7.40
2017-11-21T06:42:32.961Z,7.00
2017-11-21T06:43:32.983Z,7.10
2017-11-21T06:44:32.999Z,6.90
2017-11-21T06:45:33.026Z,7.60
2017-11-21T06:46:33.043Z,6.50
2017-11-21T06:47:33.071Z,6.20
2017-11-21T06:48:33.081Z,6.10
2017-11-21T06:49:33.101Z,6.60
2017-11-21T06:50:33.127Z,7.80
2017-11-21T06:51:33.141Z,6.30
2017-11-21T06:52:33.166Z,6.00
2017-11-21T06:53:33.182Z,8.00
2017-11-21T06:54:33.199Z,6.50
2017-11-21T06:55:33.224Z,6.80
2017-11-21T06:56:33.239Z,7.00
2017-11-21T06:57:33.263Z,7.60
2017-11-21T06:58:33.278Z,5.90
2017-11-21T06:59:33.300Z,6.40
2017-11-21T07:00:33.325Z,6.60
2017-11-21T07:01:33.341Z,6.90
2017-11-21T07:02:33.357Z,7.80
2017-11-21T07:03:33.385Z,7.20
2017-11-21T07:04:33.410Z,7.10
2017-11-21T07:05:33.421Z,6.30
2017-11-21T07:06:33.440Z,6.90
2017-11-21T07:07:33.458Z,6.60
2017-11-21T07:08:33.476Z,6.90
2017-11-21T07:09:33.496Z,6.80
2017-11-21T07:10:33.518Z,7.20
2017-11-21T07:11:33.539Z,7.40
2017-11-21T07:12:33.563Z,7.40
2017-11-21T07:13:33.581Z,7.20
2017-11-21T07:14:33.599Z,8.80
2017-11-21T07:15:33.618Z,8.10
2017-11-21T07:16:33.641Z,8.70
2017-11-21T07:17:33.656Z,8.60
2017-11-21T07:18:33.705Z,9.40
2017-11-21T07:19:33.704Z,8.50
2017-11-21T07:20:33.720Z,8.60
2017-11-21T07:21:33.740Z,10.20
2017-11-21T07:22:33.763Z,10.50
2017-11-21T07:23:33.777Z,11.40
2017-11-21T07:24:33.801Z,10.70
2017-11-21T07:25:33.820Z,10.90
2017-11-21T07:26:33.842Z,11.70
2017-11-21T07:27:33.860Z,11.40
2017-11-21T07:28:33.881Z,11.00
2017-11-21T07:29:33.902Z,11.90
2017-11-21T07:30:33.929Z,11.90
2017-11-21T07:31:33.941Z,10.90
2017-11-21T07:32:33.964Z,11.10
2017-11-21T07:33:33.983Z,10.80
2017-11-21T07:34:34.002Z,11.60
2017-11-21T07:35:34.033Z,11.90
2017-11-21T07:36:34.042Z,11.60
2017-11-21T07:37:34.077Z,12.20
2017-11-21T07:38:34.082Z,11.90
2017-11-21T07:39:34.101Z,11.90
2017-11-21T07:40:34.140Z,12.40
2017-11-21T07:41:34.157Z,11.70
2017-11-21T07:42:34.177Z,12.60
2017-11-21T07:43:34.230Z,12.60
2017-11-21T07:44:34.201Z,12.60
2017-11-21T07:45:34.228Z,13.20
2017-11-21T07:46:34.261Z,12.90
2017-11-21T07:47:34.270Z,12.40
2017-11-21T07:48:34.287Z,14.30
2017-11-21T07:49:34.311Z,14.40
2017-11-21T07:50:34.327Z,13.80
2017-11-21T07:51:34.353Z,13.30
2017-11-21T07:52:34.367Z,14.00
2017-11-21T07:53:35.324Z,14.30
2017-11-21T07:54:34.404Z,15.00
2017-11-21T07:55:34.429Z,14.50
2017-11-21T07:56:34.451Z,13.30
2017-11-21T07:57:34.463Z,12.90
2017-11-21T07:58:34.493Z,14.20
2017-11-21T07:59:34.509Z,13.10
2017-11-21T08:00:34.532Z,13.70
2017-11-21T08:01:34.573Z,13.00
2017-11-21T08:02:34.571Z,14.00
2017-11-21T08:03:34.585Z,13.90
2017-11-21T08:04:34.613Z,12.90
2017-11-21T08:05:34.633Z,13.00
2017-11-21T08:06:34.655Z,12.70
2017-11-21T08:07:34.677Z,12.90
2017-11-21T08:08:34.693Z,12.40
2017-11-21T08:09:34.716Z,12.70
2017-11-21T08:10:34.734Z,13.30
2017-11-21T08:11:34.753Z,12.80
2017-11-21T08:12:34.788Z,12.00
2017-11-21T08:13:34.809Z,12.90
2017-11-21T08:14:34.817Z,12.90
2017-11-21T08:15:34.837Z,12.90
2017-11-21T08:16:34.861Z,11.70
2017-11-21T08:17:34.882Z,13.40
2017-11-21T08:18:34.896Z,13.50
2017-11-21T08:19:34.919Z,13.10
2017-11-21T08:20:34.941Z,13.20
2017-11-21T08:21:34.958Z,13.30
2017-11-21T08:22:34.984Z,13.20
2017-11-21T08:23:35.002Z,13.20
2017-11-21T08:24:35.026Z,13.70
2017-11-21T08:25:35.044Z,13.70
2017-11-21T08:26:35.063Z,13.30
2017-11-21T08:27:35.098Z,14.00
2017-11-21T08:28:35.101Z,14.10
2017-11-21T08:29:35.134Z,15.30
2017-11-21T08:30:35.153Z,14.20
2017-11-21T08:31:35.180Z,14.00
2017-11-21T08:32:35.194Z,14.10
2017-11-21T08:33:35.212Z,15.20
2017-11-21T08:34:35.221Z,14.20
2017-11-21T08:35:35.257Z,14.40
2017-11-21T08:36:35.268Z,14.90
2017-11-21T08:37:35.291Z,14.70
2017-11-21T08:38:35.309Z,15.40
2017-11-21T08:39:35.326Z,15.30
2017-11-21T08:40:35.354Z,15.00
2017-11-21T08:41:35.372Z,15.40
2017-11-21T08:42:35.389Z,16.00
2017-11-21T08:43:35.412Z,15.90
2017-11-21T08:44:35.433Z,15.70
2017-11-21T08:45:35.460Z,17.10
2017-11-21T08:46:35.470Z,19.70
2017-11-21T08:47:35.491Z,16.50
2017-11-21T08:48:35.519Z,18.00
2017-11-21T08:49:35.532Z,16.50
2017-11-21T08:50:35.559Z,16.90
2017-11-21T08:51:35.580Z,16.30
2017-11-21T08:52:35.599Z,16.90
2017-11-21T08:53:35.615Z,17.30
2017-11-21T08:54:35.633Z,17.50
2017-11-21T08:55:35.658Z,18.60
2017-11-21T08:56:35.679Z,18.90
2017-11-21T08:57:35.697Z,17.90
2017-11-21T08:58:35.724Z,17.50
2017-11-21T08:59:35.741Z,18.30
2017-11-21T09:00:35.763Z,18.50
2017-11-21T09:01:35.781Z,18.80
2017-11-21T09:02:35.802Z,19.20
2017-11-21T09:03:35.816Z,21.20
2017-11-21T09:04:35.839Z,20.20
2017-11-21T09:05:35.876Z,21.40
2017-11-21T09:06:35.890Z,22.20
2017-11-21T09:07:35.902Z,22.60
2017-11-21T09:08:35.923Z,23.60
2017-11-21T09:09:35.943Z,23.20
2017-11-21T09:10:35.962Z,23.70
2017-11-21T09:11:35.984Z,23.50
2017-11-21T09:12:36.011Z,23.60
2017-11-21T09:13:36.027Z,26.20
2017-11-21T09:14:36.050Z,23.70
2017-11-21T09:15:36.072Z,22.70
2017-11-21T09:16:36.093Z,23.20
2017-11-21T09:17:36.110Z,24.10
2017-11-21T09:18:36.129Z,22.80
2017-11-21T09:19:36.162Z,22.50
2017-11-21T09:20:36.175Z,22.40
2017-11-21T09:21:36.198Z,22.20
2017-11-21T09:22:36.210Z,22.60
2017-11-21T09:23:36.231Z,21.50
2017-11-21T09:24:36.274Z,21.30
2017-11-21T09:25:36.276Z,21.10
2017-11-21T09:26:36.290Z,21.50
2017-11-21T09:27:36.313Z,21.60
2017-11-21T09:28:36.328Z,21.60
2017-11-21T09:29:36.353Z,19.40
2017-11-21T09:30:36.376Z,20.10
2017-11-21T09:31:36.393Z,20.20
2017-11-21T09:32:36.418Z,20.40
2017-11-21T09:33:36.436Z,20.00
2017-11-21T09:34:36.454Z,20.70
2017-11-21T09:35:36.504Z,18.70
2017-11-21T09:36:36.552Z,18.30
2017-11-21T09:37:36.530Z,18.10
2017-11-21T09:38:36.558Z,17.80
2017-11-21T09:39:36.576Z,17.90
2017-11-21T09:40:36.590Z,17.40
2017-11-21T09:41:36.616Z,18.40
2017-11-21T09:42:36.688Z,18.80
2017-11-21T09:43:36.642Z,21.90
2017-11-21T09:44:36.663Z,19.80
2017-11-21T09:45:36.705Z,19.60
2017-11-21T09:46:36.717Z,20.00
2017-11-21T09:47:36.764Z,19.80
2017-11-21T09:48:36.770Z,19.50
2017-11-21T09:49:36.772Z,19.60
2017-11-21T09:50:36.814Z,19.00
2017-11-21T09:51:36.808Z,20.50
2017-11-21T09:52:36.850Z,19.50
2017-11-21T09:53:36.861Z,19.90
2017-11-21T09:54:36.897Z,19.60
2017-11-21T09:55:36.897Z,20.50
2017-11-21T09:56:36.907Z,20.00
2017-11-21T09:57:36.928Z,22.00
2017-11-21T09:58:36.950Z,20.40
2017-11-21T09:59:37.000Z,20.80
2017-11-21T10:00:36.999Z,19.30
2017-11-21T10:01:37.077Z,19.20
2017-11-21T10:02:37.055Z,18.10
2017-11-21T10:03:37.054Z,16.80
2017-11-21T10:04:37.076Z,17.70
2017-11-21T10:05:37.092Z,19.10
2017-11-21T10:06:37.128Z,17.90
2017-11-21T10:07:37.133Z,17.20
2017-11-21T10:08:37.155Z,17.30
2017-11-21T10:09:37.175Z,16.60
2017-11-21T10:10:37.213Z,18.10
2017-11-21T10:11:37.224Z,17.60
2017-11-21T10:12:37.236Z,16.80
2017-11-21T10:13:37.264Z,19.30
2017-11-21T10:14:37.278Z,18.40
2017-11-21T10:15:37.301Z,18.00
2017-11-21T10:16:37.336Z,18.00
2017-11-21T10:17:37.344Z,17.60
2017-11-21T10:18:37.370Z,17.80
2017-11-21T10:19:37.382Z,18.20
2017-11-21T10:20:37.422Z,18.80
2017-11-21T10:21:37.429Z,18.50
2017-11-21T10:22:37.441Z,18.60
2017-11-21T10:23:37.464Z,18.40
2017-11-21T10:24:37.486Z,18.10
2017-11-21T10:25:37.509Z,16.60
2017-11-21T10:26:37.531Z,17.50
2017-11-21T10:27:37.540Z,17.20
2017-11-21T10:28:37.575Z,17.60
2017-11-21T10:29:37.593Z,17.10
2017-11-21T10:30:37.609Z,17.70
2017-11-21T10:31:37.630Z,18.70
2017-11-21T10:32:37.654Z,18.70
2017-11-21T10:33:37.681Z,17.90
2017-11-21T10:34:37.694Z,17.20
2017-11-21T10:35:37.711Z,18.80
2017-11-21T10:36:37.728Z,19.70
2017-11-21T10:37:37.756Z,20.50
2017-11-21T10:38:37.766Z,18.00
2017-11-21T10:39:37.804Z,17.70
2017-11-21T10:40:37.814Z,19.40
2017-11-21T10:41:37.841Z,18.20
2017-11-21T10:42:37.857Z,18.60
2017-11-21T10:43:37.878Z,20.30
2017-11-21T10:44:37.890Z,19.10
2017-11-21T10:45:37.920Z,18.80
2017-11-21T10:46:37.939Z,19.20
2017-11-21T10:47:37.962Z,19.80
2017-11-21T10:48:37.988Z,19.70
2017-11-21T10:49:38.021Z,19.50
2017-11-21T10:50:38.027Z,19.20
2017-11-21T10:51:38.039Z,21.80
2017-11-21T10:52:38.076Z,19.50
2017-11-21T10:53:38.091Z,18.40
2017-11-21T10:54:38.118Z,19.90
2017-11-21T10:55:38.142Z,21.30
2017-11-21T10:56:38.152Z,19.30
2017-11-21T10:57:38.170Z,22.80
2017-11-21T10:58:38.200Z,19.60
2017-11-21T10:59:38.211Z,19.80
2017-11-21T11:00:38.233Z,20.20
2017-11-21T11:01:38.257Z,21.60
2017-11-21T11:02:38.277Z,20.20
2017-11-21T11:03:38.313Z,21.90
2017-11-21T11:04:38.320Z,22.00
2017-11-21T11:05:38.337Z,23.30
2017-11-21T11:06:38.353Z,23.30
2017-11-21T11:07:38.382Z,23.60
2017-11-21T11:08:38.397Z,24.60
2017-11-21T11:09:38.419Z,23.60
2017-11-21T11:10:38.434Z,25.00
2017-11-21T11:11:38.465Z,26.60
2017-11-21T11:12:38.475Z,25.40
2017-11-21T11:13:38.498Z,25.20
2017-11-21T11:14:38.508Z,27.20
2017-11-21T11:15:38.536Z,25.60
2017-11-21T11:16:38.549Z,27.10
2017-11-21T11:17:38.578Z,26.00
2017-11-21T11:18:38.615Z,27.60
2017-11-21T11:19:38.617Z,27.00
2017-11-21T11:20:38.642Z,26.50
2017-11-21T11:21:38.665Z,26.60
2017-11-21T11:22:38.690Z,30.00
2017-11-21T11:23:38.699Z,27.60
2017-11-21T11:24:38.722Z,26.00
2017-11-21T11:25:38.739Z,25.70
2017-11-21T11:26:38.757Z,26.80
2017-11-21T11:27:38.786Z,31.60
2017-11-21T11:28:38.801Z,27.30
2017-11-21T11:29:38.830Z,27.30
2017-11-21T11:30:38.844Z,30.10
2017-11-21T11:31:38.861Z,32.40
2017-11-21T11:32:38.886Z,33.70
2017-11-21T11:33:38.904Z,33.10
2017-11-21T11:34:38.925Z,31.70
2017-11-21T11:35:38.945Z,27.80
2017-11-21T11:36:38.962Z,32.70
2017-11-21T11:37:38.986Z,30.20
2017-11-21T11:38:39.029Z,29.10
2017-11-21T11:39:39.033Z,27.00
2017-11-21T11:40:39.055Z,28.00
2017-11-21T11:41:39.080Z,29.30
2017-11-21T11:42:39.086Z,28.60
2017-11-21T11:43:39.109Z,29.80
2017-11-21T11:44:39.132Z,26.50
2017-11-21T11:45:39.164Z,27.20
2017-11-21T11:46:39.167Z,29.60
2017-11-21T11:47:39.184Z,26.20
2017-11-21T11:48:39.225Z,28.00
2017-11-21T11:49:39.228Z,28.80
2017-11-21T11:50:39.251Z,28.60
2017-11-21T11:51:39.286Z,27.40
2017-11-21T11:52:39.290Z,27.90
2017-11-21T11:53:39.339Z,28.30
2017-11-21T11:54:39.359Z,24.70
2017-11-21T11:55:39.350Z,24.00
2017-11-21T11:56:39.410Z,23.90
2017-11-21T11:57:39.400Z,25.60
2017-11-21T11:58:39.431Z,25.30
2017-11-21T11:59:39.434Z,24.50
2017-11-21T12:00:39.457Z,24.70
2017-11-21T12:01:39.473Z,24.30
2017-11-21T12:02:39.493Z,25.30
2017-11-21T12:03:39.511Z,24.40
2017-11-21T12:04:39.532Z,22.80
2017-11-21T12:05:39.552Z,25.60
2017-11-21T12:06:39.627Z,26.70
2017-11-21T12:07:39.599Z,26.50
2017-11-21T12:08:39.617Z,25.70
2017-11-21T12:09:39.672Z,26.80
2017-11-21T12:10:39.656Z,22.20
2017-11-21T12:11:39.672Z,23.70
2017-11-21T12:12:39.747Z,22.90
2017-11-21T12:13:39.742Z,24.00
2017-11-21T12:14:39.730Z,23.60
2017-11-21T12:15:39.759Z,23.90
2017-11-21T12:16:39.772Z,23.20
2017-11-21T12:17:39.792Z,24.90
2017-11-21T12:18:39.815Z,25.00
2017-11-21T12:19:39.839Z,27.80
2017-11-21T12:20:39.849Z,24.60
2017-11-21T12:21:39.874Z,26.00
2017-11-21T12:22:39.890Z,24.00
2017-11-21T12:23:39.911Z,26.50
2017-11-21T12:24:39.930Z,27.30
2017-11-21T12:25:39.953Z,25.40
2017-11-21T12:26:39.971Z,26.20
2017-11-21T12:27:39.996Z,23.20
2017-11-21T12:28:40.016Z,26.90
2017-11-21T12:29:40.037Z,27.40
2017-11-21T12:30:40.053Z,25.90
2017-11-21T12:31:40.077Z,26.80
2017-11-21T12:32:40.099Z,25.90
2017-11-21T12:33:40.118Z,25.50
2017-11-21T12:34:40.135Z,24.50
2017-11-21T12:35:40.197Z,23.40
2017-11-21T12:36:40.182Z,22.90
2017-11-21T12:37:40.201Z,24.60
2017-11-21T12:38:40.223Z,25.40
2017-11-21T12:39:40.246Z,25.10
2017-11-21T12:40:40.261Z,25.50
2017-11-21T12:41:40.280Z,23.50
2017-11-21T12:42:40.299Z,23.90
2017-11-21T12:43:40.310Z,23.40
2017-11-21T12:44:40.334Z,21.60
2017-11-21T12:45:40.364Z,23.50
2017-11-21T12:46:40.380Z,21.10
2017-11-21T12:47:40.397Z,22.60
2017-11-21T12:48:40.418Z,20.40
2017-11-21T12:49:40.440Z,22.00
2017-11-21T12:50:40.462Z,22.40
2017-11-21T12:51:40.485Z,19.50
2017-11-21T12:52:40.495Z,21.30
2017-11-21T12:53:40.523Z,18.20
2017-11-21T12:54:40.534Z,20.10
2017-11-21T12:55:40.567Z,20.40
2017-11-21T12:56:40.579Z,18.80
2017-11-21T12:57:40.604Z,18.80
2017-11-21T12:58:40.630Z,18.10
2017-11-21T12:59:40.638Z,17.40
2017-11-21T13:00:40.662Z,17.60
2017-11-21T13:01:40.686Z,17.30
2017-11-21T13:02:40.699Z,16.50
2017-11-21T13:03:40.723Z,17.10
2017-11-21T13:04:40.745Z,15.90
2017-11-21T13:05:40.758Z,18.40
2017-11-21T13:06:40.784Z,17.60
2017-11-21T13:07:40.800Z,16.80
2017-11-21T13:08:40.822Z,15.00
2017-11-21T13:09:40.834Z,15.30
2017-11-21T13:10:40.861Z,14.50
2017-11-21T13:11:40.884Z,15.00
2017-11-21T13:12:40.901Z,15.40
2017-11-21T13:13:40.979Z,14.60
2017-11-21T13:14:40.938Z,14.20
2017-11-21T13:15:40.961Z,14.90
2017-11-21T13:16:40.983Z,13.40
2017-11-21T13:17:41.002Z,14.00
2017-11-21T13:18:41.019Z,14.50
2017-11-21T13:19:41.051Z,13.50
2017-11-21T13:20:41.064Z,14.00
2017-11-21T13:21:41.080Z,13.20
2017-11-21T13:22:41.099Z,13.90
2017-11-21T13:23:41.121Z,14.30
2017-11-21T13:24:41.142Z,13.40
2017-11-21T13:25:41.163Z,13.60
2017-11-21T13:26:41.178Z,13.70
2017-11-21T13:27:41.198Z,16.50
2017-11-21T13:28:41.221Z,13.40
2017-11-21T13:29:41.241Z,14.30
2017-11-21T13:30:41.259Z,14.80
2017-11-21T13:31:41.279Z,14.40
2017-11-21T13:32:41.306Z,14.00
2017-11-21T13:33:41.325Z,13.60
2017-11-21T13:34:41.341Z,13.60
2017-11-21T13:35:41.360Z,14.30
2017-11-21T13:36:41.391Z,13.70
2017-11-21T13:37:41.404Z,14.80
2017-11-21T13:38:41.422Z,14.60
2017-11-21T13:39:41.448Z,13.80
2017-11-21T13:40:41.461Z,15.60
2017-11-21T13:41:41.477Z,13.90
2017-11-21T13:42:41.505Z,14.20
2017-11-21T13:43:41.528Z,14.40
2017-11-21T13:44:41.542Z,14.10
2017-11-21T13:45:41.566Z,14.40
2017-11-21T13:46:41.576Z,15.20
2017-11-21T13:47:41.606Z,15.30
2017-11-21T13:48:41.624Z,17.60
2017-11-21T13:49:41.640Z,15.70
2017-11-21T13:50:41.663Z,15.00
2017-11-21T13:51:41.690Z,15.60
2017-11-21T13:52:41.704Z,16.70
2017-11-21T13:53:41.738Z,15.00
2017-11-21T13:54:41.739Z,15.30
2017-11-21T13:55:41.765Z,15.80
2017-11-21T13:56:41.784Z,16.70
2017-11-21T13:57:41.803Z,15.40
2017-11-21T13:58:41.822Z,16.40
2017-11-21T13:59:41.842Z,15.40
2017-11-21T14:00:41.864Z,15.10
2017-11-21T14:01:41.883Z,16.90
2017-11-21T14:02:41.902Z,17.70
2017-11-21T14:03:41.922Z,15.60
2017-11-21T14:04:41.946Z,16.90
2017-11-21T14:05:41.967Z,18.80
2017-11-21T14:06:41.984Z,16.70
2017-11-21T14:07:42.002Z,18.20
2017-11-21T14:08:42.023Z,17.00
2017-11-21T14:09:42.036Z,17.90
2017-11-21T14:10:42.063Z,16.70
2017-11-21T14:11:42.078Z,16.80
2017-11-21T14:12:42.105Z,17.80
2017-11-21T14:13:42.125Z,20.10
2017-11-21T14:14:42.149Z,18.30
2017-11-21T14:15:42.162Z,16.40
2017-11-21T14:16:42.188Z,20.60
2017-11-21T14:17:42.206Z,21.80
2017-11-21T14:18:42.221Z,19.70
2017-11-21T14:19:42.243Z,19.50
2017-11-21T14:20:42.269Z,22.40
2017-11-21T14:21:42.284Z,23.00
2017-11-21T14:22:42.297Z,21.50
2017-11-21T14:23:42.318Z,23.50
2017-11-21T14:24:42.339Z,18.80
2017-11-21T14:25:42.356Z,20.00
2017-11-21T14:26:42.383Z,20.10
2017-11-21T14:27:42.401Z,20.60
2017-11-21T14:28:42.418Z,19.20
2017-11-21T14:29:42.437Z,19.00
2017-11-21T14:30:42.457Z,17.10
2017-11-21T14:31:42.479Z,19.50
2017-11-21T14:32:42.499Z,18.80
2017-11-21T14:33:42.517Z,19.30
2017-11-21T14:34:42.531Z,18.30
2017-11-21T14:35:42.571Z,19.80
2017-11-21T14:36:42.590Z,20.10
2017-11-21T14:37:42.603Z,19.40
2017-11-21T14:38:42.614Z,24.10
2017-11-21T14:39:42.641Z,17.90
2017-11-21T14:40:42.650Z,17.90
2017-11-21T14:41:42.686Z,18.60
2017-11-21T14:42:42.697Z,16.40
2017-11-21T14:43:42.715Z,18.20
2017-11-21T14:44:42.737Z,19.50
2017-11-21T14:45:42.755Z,19.60
2017-11-21T14:46:42.775Z,16.20
2017-11-21T14:47:42.796Z,18.90
2017-11-21T14:48:42.817Z,18.40
2017-11-21T14:49:42.835Z,18.40
2017-11-21T14:50:42.856Z,17.70
2017-11-21T14:51:42.880Z,18.40
2017-11-21T14:52:42.925Z,18.50
2017-11-21T14:53:42.915Z,20.50
2017-11-21T14:54:42.934Z,22.00
2017-11-21T14:55:42.955Z,18.40
2017-11-21T14:56:42.983Z,19.00
2017-11-21T14:57:42.994Z,18.80
2017-11-21T14:58:43.013Z,17.00
2017-11-21T14:59:43.033Z,15.30
2017-11-21T15:00:43.054Z,18.70
2017-11-21T15:01:43.071Z,17.50
2017-11-21T15:02:43.086Z,17.60
2017-11-21T15:03:43.117Z,15.40
2017-11-21T15:04:43.130Z,19.10
2017-11-21T15:05:43.157Z,16.40
2017-11-21T15:06:43.177Z,18.50
2017-11-21T15:07:43.192Z,18.20
2017-11-21T15:08:43.209Z,16.00
2017-11-21T15:09:43.233Z,16.10
2017-11-21T15:10:43.256Z,17.60
2017-11-21T15:11:43.269Z,19.30
2017-11-21T15:12:43.295Z,17.70
2017-11-21T15:13:43.344Z,15.30
2017-11-21T15:14:43.325Z,17.90
2017-11-21T15:15:43.352Z,18.10
2017-11-21T15:16:43.369Z,18.40
2017-11-21T15:17:43.390Z,18.40
2017-11-21T15:18:43.409Z,18.10
2017-11-21T15:19:43.439Z,18.10
2017-11-21T15:20:43.447Z,18.80
2017-11-21T15:21:43.472Z,17.20
2017-11-21T15:22:43.490Z,18.60
2017-11-21T15:23:43.509Z,15.70
2017-11-21T15:24:43.526Z,18.80
2017-11-21T15:25:43.542Z,18.50
2017-11-21T15:26:43.564Z,18.10
2017-11-21T15:27:43.589Z,19.70
2017-11-21T15:28:43.608Z,20.30
2017-11-21T15:29:43.621Z,20.50
2017-11-21T15:30:43.643Z,18.30
2017-11-21T15:31:43.666Z,21.10
2017-11-21T15:32:43.694Z,16.20
2017-11-21T15:33:43.700Z,19.30
2017-11-21T15:34:43.723Z,18.10
2017-11-21T15:35:43.757Z,20.90
2017-11-21T15:36:43.767Z,17.70
2017-11-21T15:37:43.794Z,16.60
2017-11-21T15:38:43.811Z,19.80
2017-11-21T15:39:43.828Z,16.70
2017-11-21T15:40:43.848Z,17.70
2017-11-21T15:41:43.874Z,16.60
2017-11-21T15:42:43.881Z,18.10
2017-11-21T15:43:43.900Z,17.60
2017-11-21T15:44:43.922Z,19.00
2017-11-21T15:45:43.940Z,19.40
2017-11-21T15:46:43.967Z,17.60
2017-11-21T15:47:43.984Z,18.10
2017-11-21T15:48:44.007Z,17.60
2017-11-21T15:49:44.021Z,19.10
2017-11-21T15:50:44.038Z,19.40
2017-11-21T15:51:44.066Z,21.30
2017-11-21T15:52:44.101Z,22.90
2017-11-21T15:53:44.110Z,18.00
2017-11-21T15:54:44.117Z,24.50
2017-11-21T15:55:44.142Z,19.00
2017-11-21T15:56:44.165Z,20.50
2017-11-21T15:57:44.179Z,21.10
2017-11-21T15:58:44.193Z,18.90
2017-11-21T15:59:44.223Z,18.20
2017-11-21T16:00:44.239Z,18.20
2017-11-21T16:01:44.256Z,18.20
2017-11-21T16:02:44.277Z,17.70
2017-11-21T16:03:44.294Z,16.80
2017-11-21T16:04:44.313Z,19.30
2017-11-21T16:05:44.333Z,18.40
2017-11-21T16:06:44.352Z,18.90
2017-11-21T16:07:44.381Z,19.20
2017-11-21T16:08:44.394Z,20.60
2017-11-21T16:09:44.413Z,19.50
2017-11-21T16:10:44.447Z,21.10
2017-11-21T16:11:44.452Z,19.80
2017-11-21T16:12:44.471Z,20.00
2017-11-21T16:13:44.493Z,18.90
2017-11-21T16:14:44.504Z,20.70
2017-11-21T16:15:44.531Z,20.90
2017-11-21T16:16:44.550Z,18.90
2017-11-21T16:17:44.571Z,21.10
2017-11-21T16:18:44.584Z,19.00
2017-11-21T16:19:44.614Z,16.80
2017-11-21T16:20:44.632Z,20.00
2017-11-21T16:21:44.647Z,18.10
2017-11-21T16:22:44.677Z,17.80
2017-11-21T16:23:44.698Z,18.40
2017-11-21T16:24:44.712Z,18.00
2017-11-21T16:25:44.728Z,17.70
2017-11-21T16:26:44.748Z,19.50
2017-11-21T16:27:44.764Z,18.90
2017-11-21T16:28:44.787Z,23.80
2017-11-21T16:29:44.801Z,18.10
2017-11-21T16:30:44.824Z,17.30
2017-11-21T16:31:44.848Z,17.70
2017-11-21T16:32:44.864Z,20.60
2017-11-21T16:33:44.887Z,19.40
2017-11-21T16:34:44.911Z,16.90
2017-11-21T16:35:44.925Z,21.60
2017-11-21T16:36:44.968Z,18.00
2017-11-21T16:37:44.966Z,20.40
2017-11-21T16:38:44.979Z,21.40
2017-11-21T16:39:45.004Z,17.80
2017-11-21T16:40:45.029Z,18.10
2017-11-21T16:41:45.043Z,18.30
2017-11-21T16:42:45.058Z,17.30
2017-11-21T16:43:45.090Z,20.10
2017-11-21T16:44:45.109Z,18.40
2017-11-21T16:45:45.122Z,18.30
2017-11-21T16:46:45.138Z,19.10
2017-11-21T16:47:45.172Z,14.80
2017-11-21T16:48:45.179Z,20.90
2017-11-21T16:49:45.197Z,18.30
2017-11-21T16:50:45.217Z,17.20
2017-11-21T16:51:45.243Z,18.00
2017-11-21T16:52:45.255Z,19.10
2017-11-21T16:53:45.278Z,21.50
2017-11-21T16:54:45.295Z,18.70
2017-11-21T16:55:45.321Z,17.70
2017-11-21T16:56:45.337Z,19.10
2017-11-21T16:57:45.367Z,16.90
2017-11-21T16:58:45.378Z,19.10
2017-11-21T16:59:45.396Z,19.70
2017-11-21T17:00:45.422Z,19.80
2017-11-21T17:01:45.436Z,20.80
2017-11-21T17:02:45.452Z,17.50
2017-11-21T17:03:45.475Z,19.70
2017-11-21T17:04:45.492Z,19.40
2017-11-21T17:05:45.515Z,16.30
2017-11-21T17:06:45.534Z,20.10
2017-11-21T17:07:45.552Z,16.60
2017-11-21T17:08:45.565Z,17.90
2017-11-21T17:09:45.591Z,17.60
2017-11-21T17:10:45.607Z,16.60
2017-11-21T17:11:45.631Z,16.80
2017-11-21T17:12:45.666Z,19.50
2017-11-21T17:13:45.672Z,19.30
2017-11-21T17:14:45.688Z,17.80
2017-11-21T17:15:45.707Z,19.30
2017-11-21T17:16:45.728Z,18.60
2017-11-21T17:17:45.744Z,19.00
2017-11-21T17:18:45.767Z,16.40
2017-11-21T17:19:45.781Z,19.00
2017-11-21T17:20:45.808Z,18.60
2017-11-21T17:21:45.828Z,17.20
2017-11-21T17:22:45.848Z,16.70
2017-11-21T17:23:45.864Z,17.90
2017-11-21T17:24:45.885Z,17.20
2017-11-21T17:25:45.904Z,19.10
2017-11-21T17:26:45.922Z,19.60
2017-11-21T17:27:45.944Z,21.70
2017-11-21T17:28:45.962Z,15.10
2017-11-21T17:29:45.980Z,20.40
2017-11-21T17:30:46.005Z,19.50
2017-11-21T17:31:46.025Z,16.90
2017-11-21T17:32:46.043Z,18.20
2017-11-21T17:33:46.064Z,22.40
2017-11-21T17:34:46.073Z,17.10
2017-11-21T17:35:46.098Z,19.30
2017-11-21T17:36:46.120Z,16.00
2017-11-21T17:37:46.140Z,21.40
2017-11-21T17:38:46.157Z,18.70
2017-11-21T17:39:46.178Z,17.40
2017-11-21T17:40:46.196Z,18.50
2017-11-21T17:41:46.218Z,17.90
2017-11-21T17:42:46.237Z,17.50
2017-11-21T17:43:46.257Z,17.40
2017-11-21T17:44:46.275Z,18.50
2017-11-21T17:45:46.299Z,19.00
2017-11-21T17:46:46.313Z,18.30
2017-11-21T17:47:46.334Z,17.10
2017-11-21T17:48:46.354Z,17.40
2017-11-21T17:49:46.376Z,18.80
2017-11-21T17:50:46.394Z,18.20
2017-11-21T17:51:46.413Z,18.30
2017-11-21T17:52:46.432Z,18.50
2017-11-21T17:53:46.472Z,18.10
2017-11-21T17:54:46.471Z,19.00
2017-11-21T17:55:46.493Z,20.60
2017-11-21T17:56:46.509Z,19.60
2017-11-21T17:57:46.531Z,20.10
2017-11-21T17:58:46.551Z,19.00
2017-11-21T17:59:46.571Z,20.00
2017-11-21T18:00:46.589Z,17.50
2017-11-21T18:01:46.615Z,15.40
2017-11-21T18:02:46.631Z,19.90
2017-11-21T18:03:46.654Z,20.60
2017-11-21T18:04:46.803Z,21.50
2017-11-21T18:05:46.687Z,17.90
2017-11-21T18:06:46.707Z,17.10
2017-11-21T18:07:46.739Z,18.30
2017-11-21T18:08:46.750Z,18.70
2017-11-21T18:09:46.776Z,21.10
2017-11-21T18:10:46.815Z,25.80
2017-11-21T18:11:46.805Z,19.30
2017-11-21T18:12:46.833Z,19.10
2017-11-21T18:13:46.848Z,20.40
2017-11-21T18:14:46.871Z,18.90
2017-11-21T18:15:46.885Z,19.80
2017-11-21T18:16:46.906Z,18.80
2017-11-21T18:17:46.929Z,17.00
2017-11-21T18:18:46.947Z,23.60
2017-11-21T18:19:46.964Z,23.30
2017-11-21T18:20:46.979Z,21.80
2017-11-21T18:21:47.005Z,24.80
2017-11-21T18:22:47.018Z,22.20
2017-11-21T18:23:47.049Z,19.80
2017-11-21T18:24:47.058Z,21.60
2017-11-21T18:25:47.077Z,21.90
2017-11-21T18:26:47.097Z,20.30
2017-11-21T18:27:47.120Z,22.90
2017-11-21T18:28:47.139Z,21.30
2017-11-21T18:29:47.160Z,25.90
2017-11-21T18:30:47.179Z,23.70
2017-11-21T18:31:47.200Z,24.00
2017-11-21T18:32:47.215Z,24.40
2017-11-21T18:33:47.240Z,25.60
2017-11-21T18:34:47.257Z,20.50
2017-11-21T18:35:47.279Z,21.30
2017-11-21T18:36:47.295Z,26.60
2017-11-21T18:37:47.318Z,24.70
2017-11-21T18:38:47.344Z,27.50
2017-11-21T18:39:47.356Z,26.80
2017-11-21T18:40:47.377Z,19.60
2017-11-21T18:41:47.395Z,26.60
2017-11-21T18:42:47.424Z,19.70
2017-11-21T18:43:47.432Z,25.30
2017-11-21T18:44:47.462Z,23.10
2017-11-21T18:45:47.478Z,25.70
2017-11-21T18:46:47.498Z,27.10
2017-11-21T18:47:47.513Z,24.70
2017-11-21T18:48:47.534Z,22.90
2017-11-21T18:49:47.551Z,24.50
2017-11-21T18:50:47.577Z,19.90
2017-11-21T18:51:47.594Z,25.30
2017-11-21T18:52:47.617Z,22.20
2017-11-21T18:53:47.640Z,25.10
2017-11-21T18:54:47.661Z,21.00
2017-11-21T18:55:47.683Z,24.40
2017-11-21T18:56:47.699Z,24.20
2017-11-21T18:57:47.712Z,24.10
2017-11-21T18:58:47.731Z,25.60
2017-11-21T18:59:47.748Z,23.60
2017-11-21T19:00:47.772Z,27.40
2017-11-21T19:01:47.790Z,26.40
2017-11-21T19:02:47.814Z,26.10
2017-11-21T19:03:47.825Z,24.50
2017-11-21T19:04:47.855Z,26.20
2017-11-21T19:05:47.875Z,22.30
2017-11-21T19:06:47.895Z,22.10
2017-11-21T19:07:47.908Z,26.50
2017-11-21T19:08:47.932Z,26.00
2017-11-21T19:09:47.946Z,23.40
2017-11-21T19:10:47.970Z,22.60
2017-11-21T19:11:48.002Z,23.30
2017-11-21T19:12:48.008Z,22.90
2017-11-21T19:13:48.019Z,23.60
2017-11-21T19:14:48.045Z,23.20
2017-11-21T19:15:48.082Z,24.80
2017-11-21T19:16:48.089Z,24.40
2017-11-21T19:17:48.104Z,24.90
2017-11-21T19:18:48.126Z,21.70
2017-11-21T19:19:48.159Z,23.40
2017-11-21T19:20:48.164Z,26.00
2017-11-21T19:21:48.185Z,21.90
2017-11-21T19:22:48.200Z,27.80
2017-11-21T19:23:48.239Z,22.70
2017-11-21T19:24:48.244Z,22.70
2017-11-21T19:25:48.261Z,24.10